sensor_id;sensor_type;location;lat;lon;timestamp;temperature;humidity
45008;DHT22;30743;52.008;5.644;2023-02-01T00:00:45;7.80;99.90
45008;DHT22;30743;52.008;5.644;2023-02-01T00:03:11;7.80;99.90
45008;DHT22;30743;52.008;5.644;2023-02-01T00:05:38;7.80;99.90
45008;DHT22;30743;52.008;5.644;2023-02-01T00:08:04;7.80;99.90
45008;DHT22;30743;52.008;5.644;2023-02-01T00:10:29;7.90;99.90
45008;DHT22;30743;52.008;5.644;2023-02-01T00:12:55;7.70;99.90
45008;DHT22;30743;52.008;5.644;2023-02-01T00:15:20;7.70;99.90
45008;DHT22;30743;52.008;5.644;2023-02-01T00:17:46;7.70;99.90
45008;DHT22;30743;52.008;5.644;2023-02-01T00:20:12;7.80;99.90
45008;DHT22;30743;52.008;5.644;2023-02-01T00:22:37;7.60;99.90
45008;DHT22;30743;52.008;5.644;2023-02-01T00:25:03;7.70;99.90
45008;DHT22;30743;52.008;5.644;2023-02-01T00:27:28;7.70;99.90
45008;DHT22;30743;52.008;5.644;2023-02-01T00:29:55;7.70;99.90
45008;DHT22;30743;52.008;5.644;2023-02-01T00:32:20;7.70;99.90
45008;DHT22;30743;52.008;5.644;2023-02-01T00:34:46;7.90;99.90
45008;DHT22;30743;52.008;5.644;2023-02-01T00:37:11;7.90;99.90
45008;DHT22;30743;52.008;5.644;2023-02-01T00:39:37;7.90;99.90
45008;DHT22;30743;52.008;5.644;2023-02-01T00:42:02;7.80;99.90
45008;DHT22;30743;52.008;5.644;2023-02-01T00:44:28;7.80;99.90
45008;DHT22;30743;52.008;5.644;2023-02-01T00:46:58;7.80;99.90
45008;DHT22;30743;52.008;5.644;2023-02-01T00:49:24;7.70;99.90
45008;DHT22;30743;52.008;5.644;2023-02-01T00:51:49;7.60;99.90
45008;DHT22;30743;52.008;5.644;2023-02-01T00:54:15;7.70;99.90
45008;DHT22;30743;52.008;5.644;2023-02-01T00:56:40;7.90;99.90
45008;DHT22;30743;52.008;5.644;2023-02-01T00:59:06;7.80;99.90
45008;DHT22;30743;52.008;5.644;2023-02-01T01:01:31;7.90;99.90
45008;DHT22;30743;52.008;5.644;2023-02-01T01:03:58;8.00;99.90
45008;DHT22;30743;52.008;5.644;2023-02-01T01:06:27;8.10;99.90
45008;DHT22;30743;52.008;5.644;2023-02-01T01:08:56;8.20;99.90
45008;DHT22;30743;52.008;5.644;2023-02-01T01:11:25;8.10;99.90
45008;DHT22;30743;52.008;5.644;2023-02-01T01:13:52;8.00;99.90
45008;DHT22;30743;52.008;5.644;2023-02-01T01:16:19;8.00;99.90
45008;DHT22;30743;52.008;5.644;2023-02-01T01:18:45;7.90;99.90
45008;DHT22;30743;52.008;5.644;2023-02-01T01:21:12;8.00;99.90
45008;DHT22;30743;52.008;5.644;2023-02-01T01:23:38;8.00;99.90
45008;DHT22;30743;52.008;5.644;2023-02-01T01:26:12;8.10;99.90
45008;DHT22;30743;52.008;5.644;2023-02-01T01:28:38;8.10;99.90
45008;DHT22;30743;52.008;5.644;2023-02-01T01:31:07;8.10;99.90
45008;DHT22;30743;52.008;5.644;2023-02-01T01:33:33;8.10;99.90
45008;DHT22;30743;52.008;5.644;2023-02-01T01:35:58;8.10;99.90
45008;DHT22;30743;52.008;5.644;2023-02-01T01:38:24;8.50;99.90
45008;DHT22;30743;52.008;5.644;2023-02-01T01:40:49;8.40;99.90
45008;DHT22;30743;52.008;5.644;2023-02-01T01:43:18;8.50;99.90
45008;DHT22;30743;52.008;5.644;2023-02-01T01:45:44;8.40;99.90
45008;DHT22;30743;52.008;5.644;2023-02-01T01:48:30;8.30;99.90
45008;DHT22;30743;52.008;5.644;2023-02-01T01:51:06;8.40;99.90
45008;DHT22;30743;52.008;5.644;2023-02-01T01:53:39;8.40;99.90
45008;DHT22;30743;52.008;5.644;2023-02-01T01:56:07;8.40;99.90
45008;DHT22;30743;52.008;5.644;2023-02-01T01:58:33;8.50;99.90
45008;DHT22;30743;52.008;5.644;2023-02-01T02:00:59;8.70;99.90
45008;DHT22;30743;52.008;5.644;2023-02-01T02:03:36;8.50;99.90
45008;DHT22;30743;52.008;5.644;2023-02-01T02:06:05;8.30;99.90
45008;DHT22;30743;52.008;5.644;2023-02-01T02:08:33;8.30;99.90
45008;DHT22;30743;52.008;5.644;2023-02-01T02:10:58;8.30;99.90
45008;DHT22;30743;52.008;5.644;2023-02-01T02:13:38;8.40;99.90
45008;DHT22;30743;52.008;5.644;2023-02-01T02:16:19;8.30;99.90
45008;DHT22;30743;52.008;5.644;2023-02-01T02:19:02;8.30;99.90
45008;DHT22;30743;52.008;5.644;2023-02-01T02:27:14;8.20;99.90
45008;DHT22;30743;52.008;5.644;2023-02-01T02:35:36;8.50;99.90
45008;DHT22;30743;52.008;5.644;2023-02-01T02:38:29;8.60;99.90
45008;DHT22;30743;52.008;5.644;2023-02-01T02:41:03;8.60;99.90
45008;DHT22;30743;52.008;5.644;2023-02-01T02:43:48;8.50;99.90
45008;DHT22;30743;52.008;5.644;2023-02-01T02:46:38;8.50;99.90
45008;DHT22;30743;52.008;5.644;2023-02-01T02:52:06;8.40;99.90
45008;DHT22;30743;52.008;5.644;2023-02-01T02:54:54;8.40;99.90
45008;DHT22;30743;52.008;5.644;2023-02-01T02:57:45;8.20;99.90
45008;DHT22;30743;52.008;5.644;2023-02-01T03:00:32;8.20;99.90
45008;DHT22;30743;52.008;5.644;2023-02-01T03:03:17;8.40;99.90
45008;DHT22;30743;52.008;5.644;2023-02-01T03:06:01;8.30;99.90
45008;DHT22;30743;52.008;5.644;2023-02-01T03:08:28;8.50;99.90
45008;DHT22;30743;52.008;5.644;2023-02-01T03:11:14;8.50;99.90
45008;DHT22;30743;52.008;5.644;2023-02-01T03:13:56;8.50;99.90
45008;DHT22;30743;52.008;5.644;2023-02-01T03:16:32;8.50;99.90
45008;DHT22;30743;52.008;5.644;2023-02-01T03:19:03;8.50;99.90
45008;DHT22;30743;52.008;5.644;2023-02-01T03:21:38;8.50;99.90
45008;DHT22;30743;52.008;5.644;2023-02-01T03:24:12;8.50;99.90
45008;DHT22;30743;52.008;5.644;2023-02-01T03:26:44;8.60;99.90
45008;DHT22;30743;52.008;5.644;2023-02-01T03:29:21;8.60;99.90
45008;DHT22;30743;52.008;5.644;2023-02-01T03:31:46;8.80;99.90
45008;DHT22;30743;52.008;5.644;2023-02-01T03:34:12;9.00;99.90
45008;DHT22;30743;52.008;5.644;2023-02-01T03:36:47;8.90;99.90
45008;DHT22;30743;52.008;5.644;2023-02-01T03:41:53;9.20;99.90
45008;DHT22;30743;52.008;5.644;2023-02-01T03:47:04;9.40;99.90
45008;DHT22;30743;52.008;5.644;2023-02-01T03:49:39;9.30;99.90
45008;DHT22;30743;52.008;5.644;2023-02-01T03:52:08;9.30;99.90
45008;DHT22;30743;52.008;5.644;2023-02-01T03:54:36;9.40;99.90
45008;DHT22;30743;52.008;5.644;2023-02-01T03:57:06;9.10;99.90
45008;DHT22;30743;52.008;5.644;2023-02-01T03:59:33;9.10;99.90
45008;DHT22;30743;52.008;5.644;2023-02-01T04:01:58;9.00;99.90
45008;DHT22;30743;52.008;5.644;2023-02-01T04:04:24;9.10;99.90
45008;DHT22;30743;52.008;5.644;2023-02-01T04:06:50;9.10;99.90
45008;DHT22;30743;52.008;5.644;2023-02-01T04:09:16;8.90;99.90
45008;DHT22;30743;52.008;5.644;2023-02-01T04:11:42;8.90;99.90
45008;DHT22;30743;52.008;5.644;2023-02-01T04:14:08;8.90;99.90
45008;DHT22;30743;52.008;5.644;2023-02-01T04:16:34;9.00;99.90
45008;DHT22;30743;52.008;5.644;2023-02-01T04:19:00;9.20;99.90
45008;DHT22;30743;52.008;5.644;2023-02-01T04:21:26;9.20;99.90
45008;DHT22;30743;52.008;5.644;2023-02-01T04:23:52;9.40;99.90
45008;DHT22;30743;52.008;5.644;2023-02-01T04:26:18;9.30;99.90
45008;DHT22;30743;52.008;5.644;2023-02-01T04:28:44;9.30;99.90
45008;DHT22;30743;52.008;5.644;2023-02-01T04:31:13;9.30;99.90
45008;DHT22;30743;52.008;5.644;2023-02-01T04:33:38;9.30;99.90
45008;DHT22;30743;52.008;5.644;2023-02-01T04:36:04;9.60;99.90
45008;DHT22;30743;52.008;5.644;2023-02-01T04:38:30;9.60;99.90
45008;DHT22;30743;52.008;5.644;2023-02-01T04:40:57;9.40;99.90
45008;DHT22;30743;52.008;5.644;2023-02-01T04:43:23;9.40;99.90
45008;DHT22;30743;52.008;5.644;2023-02-01T04:45:49;9.30;99.90
45008;DHT22;30743;52.008;5.644;2023-02-01T04:48:18;9.80;99.90
45008;DHT22;30743;52.008;5.644;2023-02-01T04:50:45;9.80;99.90
45008;DHT22;30743;52.008;5.644;2023-02-01T04:53:13;9.60;99.90
45008;DHT22;30743;52.008;5.644;2023-02-01T04:55:39;9.50;99.90
45008;DHT22;30743;52.008;5.644;2023-02-01T04:58:05;9.40;99.90
45008;DHT22;30743;52.008;5.644;2023-02-01T05:00:30;9.30;99.90
45008;DHT22;30743;52.008;5.644;2023-02-01T05:02:56;9.40;99.90
45008;DHT22;30743;52.008;5.644;2023-02-01T05:05:21;9.50;99.90
45008;DHT22;30743;52.008;5.644;2023-02-01T05:07:47;9.40;99.90
45008;DHT22;30743;52.008;5.644;2023-02-01T05:10:13;9.50;99.90
45008;DHT22;30743;52.008;5.644;2023-02-01T05:12:38;9.50;99.90
45008;DHT22;30743;52.008;5.644;2023-02-01T05:15:22;9.50;99.90
45008;DHT22;30743;52.008;5.644;2023-02-01T05:17:48;9.60;99.90
45008;DHT22;30743;52.008;5.644;2023-02-01T05:20:13;9.50;99.90
45008;DHT22;30743;52.008;5.644;2023-02-01T05:22:40;9.60;99.90
45008;DHT22;30743;52.008;5.644;2023-02-01T05:25:06;9.60;99.90
45008;DHT22;30743;52.008;5.644;2023-02-01T05:27:31;9.60;99.90
45008;DHT22;30743;52.008;5.644;2023-02-01T05:29:57;9.60;99.90
45008;DHT22;30743;52.008;5.644;2023-02-01T05:32:22;9.90;99.90
45008;DHT22;30743;52.008;5.644;2023-02-01T05:34:48;10.10;99.90
45008;DHT22;30743;52.008;5.644;2023-02-01T05:37:13;10.00;99.90
45008;DHT22;30743;52.008;5.644;2023-02-01T05:39:39;10.00;99.90
45008;DHT22;30743;52.008;5.644;2023-02-01T05:42:04;9.80;99.90
45008;DHT22;30743;52.008;5.644;2023-02-01T05:44:30;9.90;99.90
45008;DHT22;30743;52.008;5.644;2023-02-01T05:46:55;9.70;99.90
45008;DHT22;30743;52.008;5.644;2023-02-01T05:49:21;9.70;99.90
45008;DHT22;30743;52.008;5.644;2023-02-01T05:51:46;9.40;99.90
45008;DHT22;30743;52.008;5.644;2023-02-01T05:54:12;9.50;99.90
45008;DHT22;30743;52.008;5.644;2023-02-01T05:56:38;9.60;99.90
45008;DHT22;30743;52.008;5.644;2023-02-01T05:59:03;9.60;99.90
45008;DHT22;30743;52.008;5.644;2023-02-01T06:01:29;9.60;99.90
45008;DHT22;30743;52.008;5.644;2023-02-01T06:03:54;9.80;99.90
45008;DHT22;30743;52.008;5.644;2023-02-01T06:06:20;9.70;99.90
45008;DHT22;30743;52.008;5.644;2023-02-01T06:08:45;9.70;99.90
45008;DHT22;30743;52.008;5.644;2023-02-01T06:11:11;9.60;99.90
45008;DHT22;30743;52.008;5.644;2023-02-01T06:13:36;9.50;99.90
45008;DHT22;30743;52.008;5.644;2023-02-01T06:16:04;9.50;99.90
45008;DHT22;30743;52.008;5.644;2023-02-01T06:18:31;9.50;99.90
45008;DHT22;30743;52.008;5.644;2023-02-01T06:20:57;9.60;99.90
45008;DHT22;30743;52.008;5.644;2023-02-01T06:23:25;9.60;99.90
45008;DHT22;30743;52.008;5.644;2023-02-01T06:25:51;9.60;99.90
45008;DHT22;30743;52.008;5.644;2023-02-01T06:28:17;9.40;99.90
45008;DHT22;30743;52.008;5.644;2023-02-01T06:30:42;9.50;99.90
45008;DHT22;30743;52.008;5.644;2023-02-01T06:33:12;9.40;99.90
45008;DHT22;30743;52.008;5.644;2023-02-01T06:35:40;9.40;99.90
45008;DHT22;30743;52.008;5.644;2023-02-01T06:38:06;9.50;99.90
45008;DHT22;30743;52.008;5.644;2023-02-01T06:40:32;9.60;99.90
45008;DHT22;30743;52.008;5.644;2023-02-01T06:42:57;9.80;99.90
45008;DHT22;30743;52.008;5.644;2023-02-01T06:45:23;9.80;99.90
45008;DHT22;30743;52.008;5.644;2023-02-01T06:47:49;9.70;99.90
45008;DHT22;30743;52.008;5.644;2023-02-01T06:50:15;9.80;99.90
45008;DHT22;30743;52.008;5.644;2023-02-01T06:52:40;9.80;99.90
45008;DHT22;30743;52.008;5.644;2023-02-01T06:55:06;9.70;99.90
45008;DHT22;30743;52.008;5.644;2023-02-01T06:57:32;9.70;99.90
45008;DHT22;30743;52.008;5.644;2023-02-01T06:59:59;9.70;99.90
45008;DHT22;30743;52.008;5.644;2023-02-01T07:02:25;9.90;99.90
45008;DHT22;30743;52.008;5.644;2023-02-01T07:04:50;9.70;99.90
45008;DHT22;30743;52.008;5.644;2023-02-01T07:07:16;9.70;99.90
45008;DHT22;30743;52.008;5.644;2023-02-01T07:09:42;9.70;99.90
45008;DHT22;30743;52.008;5.644;2023-02-01T07:12:07;9.70;99.90
45008;DHT22;30743;52.008;5.644;2023-02-01T07:14:33;9.50;99.90
45008;DHT22;30743;52.008;5.644;2023-02-01T07:16:58;9.50;99.90
45008;DHT22;30743;52.008;5.644;2023-02-01T07:19:24;9.50;99.90
45008;DHT22;30743;52.008;5.644;2023-02-01T07:21:49;9.60;99.90
45008;DHT22;30743;52.008;5.644;2023-02-01T07:24:15;9.80;99.90
45008;DHT22;30743;52.008;5.644;2023-02-01T07:26:40;9.90;99.90
45008;DHT22;30743;52.008;5.644;2023-02-01T07:29:06;9.70;99.90
45008;DHT22;30743;52.008;5.644;2023-02-01T07:31:31;9.70;99.90
45008;DHT22;30743;52.008;5.644;2023-02-01T07:33:57;9.80;99.90
45008;DHT22;30743;52.008;5.644;2023-02-01T07:36:23;9.80;99.90
45008;DHT22;30743;52.008;5.644;2023-02-01T07:38:49;10.00;99.90
45008;DHT22;30743;52.008;5.644;2023-02-01T07:41:14;9.80;99.90
45008;DHT22;30743;52.008;5.644;2023-02-01T07:43:40;9.70;99.90
45008;DHT22;30743;52.008;5.644;2023-02-01T07:46:06;9.70;99.90
45008;DHT22;30743;52.008;5.644;2023-02-01T07:48:33;9.60;99.90
45008;DHT22;30743;52.008;5.644;2023-02-01T07:51:07;9.40;99.90
45008;DHT22;30743;52.008;5.644;2023-02-01T07:53:34;9.50;99.90
45008;DHT22;30743;52.008;5.644;2023-02-01T07:56:00;9.50;99.90
45008;DHT22;30743;52.008;5.644;2023-02-01T07:58:26;9.40;99.90
45008;DHT22;30743;52.008;5.644;2023-02-01T08:00:53;9.50;99.90
45008;DHT22;30743;52.008;5.644;2023-02-01T08:03:37;9.30;99.90
45008;DHT22;30743;52.008;5.644;2023-02-01T08:06:03;9.40;99.90
45008;DHT22;30743;52.008;5.644;2023-02-01T08:08:29;9.50;99.90
45008;DHT22;30743;52.008;5.644;2023-02-01T08:10:59;9.50;99.90
45008;DHT22;30743;52.008;5.644;2023-02-01T08:13:25;9.60;99.90
45008;DHT22;30743;52.008;5.644;2023-02-01T08:15:51;9.70;99.90
45008;DHT22;30743;52.008;5.644;2023-02-01T08:18:16;10.00;99.90
45008;DHT22;30743;52.008;5.644;2023-02-01T08:20:43;10.00;99.90
45008;DHT22;30743;52.008;5.644;2023-02-01T08:23:11;9.80;99.90
45008;DHT22;30743;52.008;5.644;2023-02-01T08:25:37;9.60;99.90
45008;DHT22;30743;52.008;5.644;2023-02-01T08:28:03;9.80;99.90
45008;DHT22;30743;52.008;5.644;2023-02-01T08:30:29;9.80;99.90
45008;DHT22;30743;52.008;5.644;2023-02-01T08:32:54;10.00;99.90
45008;DHT22;30743;52.008;5.644;2023-02-01T08:35:20;10.00;99.90
45008;DHT22;30743;52.008;5.644;2023-02-01T08:37:45;9.90;99.90
45008;DHT22;30743;52.008;5.644;2023-02-01T08:40:11;9.90;99.90
45008;DHT22;30743;52.008;5.644;2023-02-01T08:42:38;10.00;99.90
45008;DHT22;30743;52.008;5.644;2023-02-01T08:45:17;10.30;99.90
45008;DHT22;30743;52.008;5.644;2023-02-01T08:47:44;10.70;99.90
45008;DHT22;30743;52.008;5.644;2023-02-01T08:50:10;10.80;99.90
45008;DHT22;30743;52.008;5.644;2023-02-01T08:52:35;11.00;99.90
45008;DHT22;30743;52.008;5.644;2023-02-01T08:55:01;11.10;99.90
45008;DHT22;30743;52.008;5.644;2023-02-01T08:57:26;10.80;99.90
45008;DHT22;30743;52.008;5.644;2023-02-01T08:59:52;10.80;99.90
45008;DHT22;30743;52.008;5.644;2023-02-01T09:02:18;10.90;99.90
45008;DHT22;30743;52.008;5.644;2023-02-01T09:04:44;11.30;99.90
45008;DHT22;30743;52.008;5.644;2023-02-01T09:07:10;11.60;99.90
45008;DHT22;30743;52.008;5.644;2023-02-01T09:09:36;11.60;99.90
45008;DHT22;30743;52.008;5.644;2023-02-01T09:12:03;11.40;99.90
45008;DHT22;30743;52.008;5.644;2023-02-01T09:14:28;11.40;99.90
45008;DHT22;30743;52.008;5.644;2023-02-01T09:16:54;11.10;99.90
45008;DHT22;30743;52.008;5.644;2023-02-01T09:19:19;11.00;99.90
45008;DHT22;30743;52.008;5.644;2023-02-01T09:21:45;10.70;99.90
45008;DHT22;30743;52.008;5.644;2023-02-01T09:24:11;10.80;99.90
45008;DHT22;30743;52.008;5.644;2023-02-01T09:26:37;11.30;99.90
45008;DHT22;30743;52.008;5.644;2023-02-01T09:29:03;12.00;99.90
45008;DHT22;30743;52.008;5.644;2023-02-01T09:31:30;12.50;99.90
45008;DHT22;30743;52.008;5.644;2023-02-01T09:33:55;13.10;99.90
45008;DHT22;30743;52.008;5.644;2023-02-01T09:36:21;13.30;99.90
45008;DHT22;30743;52.008;5.644;2023-02-01T09:38:47;13.10;99.90
45008;DHT22;30743;52.008;5.644;2023-02-01T09:44:37;12.50;99.90
45008;DHT22;30743;52.008;5.644;2023-02-01T09:47:14;12.60;99.90
45008;DHT22;30743;52.008;5.644;2023-02-01T09:52:57;12.10;99.90
45008;DHT22;30743;52.008;5.644;2023-02-01T09:55:39;11.50;99.90
45008;DHT22;30743;52.008;5.644;2023-02-01T09:58:33;11.30;99.90
45008;DHT22;30743;52.008;5.644;2023-02-01T10:01:02;11.20;99.90
45008;DHT22;30743;52.008;5.644;2023-02-01T10:03:30;11.10;99.90
45008;DHT22;30743;52.008;5.644;2023-02-01T10:14:51;10.20;99.90
45008;DHT22;30743;52.008;5.644;2023-02-01T10:22:51;10.10;99.90
45008;DHT22;30743;52.008;5.644;2023-02-01T10:25:26;9.90;99.90
45008;DHT22;30743;52.008;5.644;2023-02-01T10:27:52;9.90;99.90
45008;DHT22;30743;52.008;5.644;2023-02-01T10:30:26;9.90;99.90
45008;DHT22;30743;52.008;5.644;2023-02-01T10:32:56;10.00;99.90
45008;DHT22;30743;52.008;5.644;2023-02-01T10:35:27;10.00;99.90
45008;DHT22;30743;52.008;5.644;2023-02-01T10:37:54;10.10;99.90
45008;DHT22;30743;52.008;5.644;2023-02-01T10:40:25;10.00;99.90
45008;DHT22;30743;52.008;5.644;2023-02-01T10:42:57;9.80;99.90
45008;DHT22;30743;52.008;5.644;2023-02-01T10:45:27;9.80;99.90
45008;DHT22;30743;52.008;5.644;2023-02-01T10:47:55;9.80;99.90
45008;DHT22;30743;52.008;5.644;2023-02-01T10:56:09;9.30;99.90
45008;DHT22;30743;52.008;5.644;2023-02-01T10:58:35;9.40;99.90
45008;DHT22;30743;52.008;5.644;2023-02-01T11:01:10;9.30;99.90
45008;DHT22;30743;52.008;5.644;2023-02-01T11:03:41;9.40;99.90
45008;DHT22;30743;52.008;5.644;2023-02-01T11:06:26;9.40;99.90
45008;DHT22;30743;52.008;5.644;2023-02-01T11:08:56;9.50;99.90
45008;DHT22;30743;52.008;5.644;2023-02-01T11:11:23;9.60;99.90
45008;DHT22;30743;52.008;5.644;2023-02-01T11:14:00;9.60;99.90
45008;DHT22;30743;52.008;5.644;2023-02-01T11:16:37;9.60;99.90
45008;DHT22;30743;52.008;5.644;2023-02-01T11:19:04;9.50;99.90
45008;DHT22;30743;52.008;5.644;2023-02-01T11:21:31;9.50;99.90
45008;DHT22;30743;52.008;5.644;2023-02-01T11:24:01;9.60;99.90
45008;DHT22;30743;52.008;5.644;2023-02-01T11:26:28;9.60;99.90
45008;DHT22;30743;52.008;5.644;2023-02-01T11:28:58;9.70;99.90
45008;DHT22;30743;52.008;5.644;2023-02-01T11:31:26;9.70;99.90
45008;DHT22;30743;52.008;5.644;2023-02-01T11:33:57;9.70;99.90
45008;DHT22;30743;52.008;5.644;2023-02-01T11:36:27;9.70;99.90
45008;DHT22;30743;52.008;5.644;2023-02-01T11:41:26;9.90;99.90
45008;DHT22;30743;52.008;5.644;2023-02-01T11:43:57;10.00;99.90
45008;DHT22;30743;52.008;5.644;2023-02-01T11:46:29;9.90;99.90
45008;DHT22;30743;52.008;5.644;2023-02-01T11:48:56;10.00;99.90
45008;DHT22;30743;52.008;5.644;2023-02-01T11:51:40;10.00;99.90
45008;DHT22;30743;52.008;5.644;2023-02-01T12:00:27;10.10;99.90
45008;DHT22;30743;52.008;5.644;2023-02-01T12:06:04;10.00;99.90
45008;DHT22;30743;52.008;5.644;2023-02-01T12:11:43;10.30;99.90
45008;DHT22;30743;52.008;5.644;2023-02-01T12:17:13;10.30;99.90
45008;DHT22;30743;52.008;5.644;2023-02-01T12:20:13;10.50;99.90
45008;DHT22;30743;52.008;5.644;2023-02-01T12:31:44;11.20;99.90
45008;DHT22;30743;52.008;5.644;2023-02-01T12:34:46;11.10;99.90
45008;DHT22;30743;52.008;5.644;2023-02-01T12:43:14;11.10;99.90
45008;DHT22;30743;52.008;5.644;2023-02-01T12:45:52;11.00;99.90
45008;DHT22;30743;52.008;5.644;2023-02-01T12:51:11;11.10;99.90
45008;DHT22;30743;52.008;5.644;2023-02-01T12:53:50;10.90;99.90
45008;DHT22;30743;52.008;5.644;2023-02-01T12:59:10;10.80;99.90
45008;DHT22;30743;52.008;5.644;2023-02-01T13:01:45;10.90;99.90
45008;DHT22;30743;52.008;5.644;2023-02-01T13:04:37;10.80;99.90
45008;DHT22;30743;52.008;5.644;2023-02-01T13:07:38;10.80;99.90
45008;DHT22;30743;52.008;5.644;2023-02-01T13:12:59;10.50;99.90
45008;DHT22;30743;52.008;5.644;2023-02-01T13:15:33;10.70;99.90
45008;DHT22;30743;52.008;5.644;2023-02-01T13:18:03;10.70;99.90
45008;DHT22;30743;52.008;5.644;2023-02-01T13:20:42;10.70;99.90
45008;DHT22;30743;52.008;5.644;2023-02-01T13:23:29;10.70;99.90
45008;DHT22;30743;52.008;5.644;2023-02-01T13:25:55;10.80;99.90
45008;DHT22;30743;52.008;5.644;2023-02-01T13:40:03;10.80;99.90
45008;DHT22;30743;52.008;5.644;2023-02-01T13:42:43;11.00;99.90
45008;DHT22;30743;52.008;5.644;2023-02-01T13:45:17;11.30;99.90
45008;DHT22;30743;52.008;5.644;2023-02-01T13:47:47;11.20;99.90
45008;DHT22;30743;52.008;5.644;2023-02-01T13:50:28;11.20;99.90
45008;DHT22;30743;52.008;5.644;2023-02-01T13:53:26;11.20;99.90
45008;DHT22;30743;52.008;5.644;2023-02-01T13:56:20;11.10;99.90
45008;DHT22;30743;52.008;5.644;2023-02-01T13:58:48;11.20;99.90
45008;DHT22;30743;52.008;5.644;2023-02-01T14:03:58;11.30;99.90
45008;DHT22;30743;52.008;5.644;2023-02-01T14:09:17;11.30;99.90
45008;DHT22;30743;52.008;5.644;2023-02-01T14:11:51;11.60;99.90
45008;DHT22;30743;52.008;5.644;2023-02-01T14:16:43;11.70;99.90
45008;DHT22;30743;52.008;5.644;2023-02-01T14:19:29;11.60;99.90
45008;DHT22;30743;52.008;5.644;2023-02-01T14:22:00;11.70;99.90
45008;DHT22;30743;52.008;5.644;2023-02-01T14:24:34;11.60;99.90
45008;DHT22;30743;52.008;5.644;2023-02-01T14:27:16;11.60;99.90
45008;DHT22;30743;52.008;5.644;2023-02-01T14:29:49;11.50;99.90
45008;DHT22;30743;52.008;5.644;2023-02-01T14:32:26;11.50;99.90
45008;DHT22;30743;52.008;5.644;2023-02-01T14:34:58;11.50;99.90
45008;DHT22;30743;52.008;5.644;2023-02-01T14:37:31;11.50;99.90
45008;DHT22;30743;52.008;5.644;2023-02-01T14:42:44;11.20;99.90
45008;DHT22;30743;52.008;5.644;2023-02-01T14:47:54;11.30;99.90
45008;DHT22;30743;52.008;5.644;2023-02-01T14:58:49;11.30;99.90
45008;DHT22;30743;52.008;5.644;2023-02-01T15:01:30;11.10;99.90
45008;DHT22;30743;52.008;5.644;2023-02-01T15:04:06;11.00;99.90
45008;DHT22;30743;52.008;5.644;2023-02-01T15:06:33;10.80;99.90
45008;DHT22;30743;52.008;5.644;2023-02-01T15:09:09;10.80;99.90
45008;DHT22;30743;52.008;5.644;2023-02-01T15:12:01;10.90;99.90
45008;DHT22;30743;52.008;5.644;2023-02-01T15:14:30;10.90;99.90
45008;DHT22;30743;52.008;5.644;2023-02-01T15:16:56;10.90;99.90
45008;DHT22;30743;52.008;5.644;2023-02-01T15:19:26;11.00;99.90
45008;DHT22;30743;52.008;5.644;2023-02-01T15:21:55;11.10;99.90
45008;DHT22;30743;52.008;5.644;2023-02-01T15:24:27;11.10;99.90
45008;DHT22;30743;52.008;5.644;2023-02-01T15:26:54;11.10;99.90
45008;DHT22;30743;52.008;5.644;2023-02-01T15:29:22;11.00;99.90
45008;DHT22;30743;52.008;5.644;2023-02-01T15:31:52;11.00;99.90
45008;DHT22;30743;52.008;5.644;2023-02-01T15:34:18;10.90;99.90
45008;DHT22;30743;52.008;5.644;2023-02-01T15:36:45;11.00;99.90
45008;DHT22;30743;52.008;5.644;2023-02-01T15:39:22;11.00;99.90
45008;DHT22;30743;52.008;5.644;2023-02-01T15:41:54;11.10;99.90
45008;DHT22;30743;52.008;5.644;2023-02-01T15:44:39;11.00;99.90
45008;DHT22;30743;52.008;5.644;2023-02-01T15:47:16;11.00;99.90
45008;DHT22;30743;52.008;5.644;2023-02-01T15:49:43;10.80;99.90
45008;DHT22;30743;52.008;5.644;2023-02-01T15:52:23;11.10;99.90
45008;DHT22;30743;52.008;5.644;2023-02-01T15:54:52;11.20;99.90
45008;DHT22;30743;52.008;5.644;2023-02-01T15:57:30;11.20;99.90
45008;DHT22;30743;52.008;5.644;2023-02-01T16:00:02;11.20;99.90
45008;DHT22;30743;52.008;5.644;2023-02-01T16:02:37;11.30;99.90
45008;DHT22;30743;52.008;5.644;2023-02-01T16:05:29;11.10;99.90
45008;DHT22;30743;52.008;5.644;2023-02-01T16:10:30;10.90;99.90
45008;DHT22;30743;52.008;5.644;2023-02-01T16:12:56;11.00;99.90
45008;DHT22;30743;52.008;5.644;2023-02-01T16:15:26;11.00;99.90
45008;DHT22;30743;52.008;5.644;2023-02-01T16:17:51;11.20;99.90
45008;DHT22;30743;52.008;5.644;2023-02-01T16:20:17;11.00;99.90
45008;DHT22;30743;52.008;5.644;2023-02-01T16:22:43;11.00;99.90
45008;DHT22;30743;52.008;5.644;2023-02-01T16:25:08;11.10;99.90
45008;DHT22;30743;52.008;5.644;2023-02-01T16:27:34;11.00;99.90
45008;DHT22;30743;52.008;5.644;2023-02-01T16:29:59;10.80;99.90
45008;DHT22;30743;52.008;5.644;2023-02-01T16:32:25;10.80;99.90
45008;DHT22;30743;52.008;5.644;2023-02-01T16:34:52;11.00;99.90
45008;DHT22;30743;52.008;5.644;2023-02-01T16:37:21;11.30;99.90
45008;DHT22;30743;52.008;5.644;2023-02-01T16:39:47;11.10;99.90
45008;DHT22;30743;52.008;5.644;2023-02-01T16:42:14;11.20;99.90
45008;DHT22;30743;52.008;5.644;2023-02-01T16:44:40;11.30;99.90
45008;DHT22;30743;52.008;5.644;2023-02-01T16:47:16;11.10;99.90
45008;DHT22;30743;52.008;5.644;2023-02-01T16:49:42;11.10;99.90
45008;DHT22;30743;52.008;5.644;2023-02-01T16:52:24;11.20;99.90
45008;DHT22;30743;52.008;5.644;2023-02-01T16:54:50;11.10;99.90
45008;DHT22;30743;52.008;5.644;2023-02-01T16:57:17;11.10;99.90
45008;DHT22;30743;52.008;5.644;2023-02-01T16:59:43;11.20;99.90
45008;DHT22;30743;52.008;5.644;2023-02-01T17:02:13;11.20;99.90
45008;DHT22;30743;52.008;5.644;2023-02-01T17:04:39;11.00;99.90
45008;DHT22;30743;52.008;5.644;2023-02-01T17:07:04;10.90;99.90
45008;DHT22;30743;52.008;5.644;2023-02-01T17:09:36;10.90;99.90
45008;DHT22;30743;52.008;5.644;2023-02-01T17:12:02;11.10;99.90
45008;DHT22;30743;52.008;5.644;2023-02-01T17:14:38;11.10;99.90
45008;DHT22;30743;52.008;5.644;2023-02-01T17:17:05;11.10;99.90
45008;DHT22;30743;52.008;5.644;2023-02-01T17:19:32;11.20;99.90
45008;DHT22;30743;52.008;5.644;2023-02-01T17:21:57;11.40;99.90
45008;DHT22;30743;52.008;5.644;2023-02-01T17:24:26;11.60;99.90
45008;DHT22;30743;52.008;5.644;2023-02-01T17:26:52;11.80;99.90
45008;DHT22;30743;52.008;5.644;2023-02-01T17:29:18;11.50;99.90
45008;DHT22;30743;52.008;5.644;2023-02-01T17:31:47;11.60;99.90
45008;DHT22;30743;52.008;5.644;2023-02-01T17:34:14;11.70;99.90
45008;DHT22;30743;52.008;5.644;2023-02-01T17:36:42;11.30;99.90
45008;DHT22;30743;52.008;5.644;2023-02-01T17:39:08;11.30;99.90
45008;DHT22;30743;52.008;5.644;2023-02-01T17:41:35;11.20;99.90
45008;DHT22;30743;52.008;5.644;2023-02-01T17:44:02;11.30;99.90
45008;DHT22;30743;52.008;5.644;2023-02-01T17:46:27;11.40;99.90
45008;DHT22;30743;52.008;5.644;2023-02-01T17:48:54;11.60;99.90
45008;DHT22;30743;52.008;5.644;2023-02-01T17:51:23;11.50;99.90
45008;DHT22;30743;52.008;5.644;2023-02-01T17:53:49;11.50;99.90
45008;DHT22;30743;52.008;5.644;2023-02-01T17:56:17;11.40;99.90
45008;DHT22;30743;52.008;5.644;2023-02-01T17:58:43;11.40;99.90